createdAt,value
2022-12-11T00:01:47.874Z,-0.40
2022-12-11T00:06:51.365Z,-0.40
2022-12-11T00:11:54.189Z,-0.40
2022-12-11T00:16:56.757Z,-0.40
2022-12-11T00:21:59.134Z,-0.50
2022-12-11T00:27:01.628Z,-0.50
2022-12-11T00:32:04.104Z,-0.40
2022-12-11T00:37:06.587Z,-0.50
2022-12-11T00:42:09.364Z,-0.50
2022-12-11T00:47:11.707Z,-0.40
2022-12-11T00:52:14.179Z,-0.40
2022-12-11T00:57:16.555Z,-0.50
2022-12-11T01:02:18.909Z,-0.50
2022-12-11T01:07:21.321Z,-0.50
2022-12-11T01:12:23.743Z,-0.40
2022-12-11T01:17:26.168Z,-0.40
2022-12-11T01:22:28.591Z,-0.40
2022-12-11T01:27:31.179Z,-0.40
2022-12-11T01:32:34.839Z,-0.40
2022-12-11T01:37:37.208Z,-0.40
2022-12-11T01:42:39.723Z,-0.40
2022-12-11T01:47:42.146Z,-0.40
2022-12-11T01:52:47.111Z,-0.40
2022-12-11T01:57:51.461Z,-0.40
2022-12-11T02:02:53.845Z,-0.40
2022-12-11T02:08:00.628Z,-0.40
2022-12-11T02:13:30.125Z,-0.40
2022-12-11T02:18:42.614Z,-0.40
2022-12-11T02:23:55.920Z,-0.40
2022-12-11T02:29:00.779Z,-0.50
2022-12-11T02:34:18.487Z,-0.50
2022-12-11T02:39:23.049Z,-0.50
2022-12-11T02:44:29.486Z,-0.40
2022-12-11T02:49:33.944Z,-0.50
2022-12-11T02:54:39.526Z,-0.50
2022-12-11T02:59:44.722Z,-0.40
2022-12-11T03:04:48.776Z,-0.40
2022-12-11T03:09:52.133Z,-0.50
2022-12-11T03:14:54.693Z,-0.50
2022-12-11T03:20:23.224Z,-0.40
2022-12-11T03:25:33.810Z,-0.40
2022-12-11T03:30:38.471Z,-0.50
2022-12-11T03:35:44.826Z,-0.40
2022-12-11T03:40:51.955Z,-0.40
2022-12-11T03:45:55.487Z,-0.50
2022-12-11T03:50:59.377Z,-0.40
2022-12-11T03:56:04.018Z,-0.10
2022-12-11T04:01:10.535Z,-0.40
2022-12-11T04:06:12.988Z,-0.40
2022-12-11T04:11:33.861Z,-0.40
2022-12-11T04:16:36.304Z,-0.40
2022-12-11T04:21:57.072Z,-0.50
2022-12-11T04:26:59.619Z,-0.50
2022-12-11T04:32:02.003Z,-0.60
2022-12-11T04:37:04.368Z,-0.60
2022-12-11T04:42:06.720Z,-0.60
2022-12-11T04:47:09.099Z,-0.70
2022-12-11T04:52:11.510Z,-0.70
2022-12-11T04:57:13.933Z,-0.70
2022-12-11T05:02:16.805Z,-0.80
2022-12-11T05:07:19.214Z,-0.70
2022-12-11T05:12:21.582Z,-0.70
2022-12-11T05:17:24.019Z,-0.70
2022-12-11T05:22:26.398Z,-0.70
2022-12-11T05:27:28.830Z,-0.70
2022-12-11T05:32:31.240Z,-0.70
2022-12-11T05:37:34.684Z,-0.70
2022-12-11T05:42:37.229Z,-0.70
2022-12-11T05:47:39.703Z,-0.70
2022-12-11T05:52:42.194Z,-0.70
2022-12-11T05:57:44.741Z,-0.80
2022-12-11T06:02:47.577Z,-0.70
2022-12-11T06:07:50.133Z,-0.70
2022-12-11T06:12:52.540Z,-0.70
2022-12-11T06:17:54.923Z,-0.60
2022-12-11T06:22:57.374Z,-0.70
2022-12-11T06:27:59.985Z,-0.70
2022-12-11T06:33:02.371Z,-0.70
2022-12-11T06:38:04.776Z,-0.70
2022-12-11T06:43:07.159Z,-0.70
2022-12-11T06:48:09.791Z,-0.60
2022-12-11T06:53:13.696Z,-0.70
2022-12-11T06:58:16.733Z,-0.60
2022-12-11T07:03:19.199Z,-0.60
2022-12-11T07:08:21.759Z,-0.60
2022-12-11T07:13:24.322Z,-0.60
2022-12-11T07:18:27.068Z,-0.60
2022-12-11T07:23:29.915Z,-1.00
2022-12-11T07:28:32.376Z,-0.60
2022-12-11T07:33:34.965Z,-0.70
2022-12-11T07:38:37.920Z,-0.60
2022-12-11T07:43:40.685Z,-0.60
2022-12-11T07:48:44.865Z,-0.60
2022-12-11T07:53:49.772Z,-0.60
2022-12-11T07:58:52.462Z,-0.50
2022-12-11T08:03:55.860Z,-0.60
2022-12-11T08:09:01.578Z,-0.60
2022-12-11T08:14:05.871Z,-0.60
2022-12-11T08:19:08.761Z,-0.60
2022-12-11T08:24:11.827Z,-0.60
2022-12-11T08:29:14.734Z,-0.50
2022-12-11T08:34:19.833Z,-0.40
2022-12-11T08:39:25.387Z,-0.40
2022-12-11T08:44:28.389Z,-0.30
2022-12-11T08:49:34.332Z,-0.50
2022-12-11T08:54:38.212Z,-0.50
2022-12-11T08:59:40.635Z,-0.50
2022-12-11T09:04:46.110Z,-0.60
2022-12-11T09:09:48.648Z,-0.60
2022-12-11T09:14:51.078Z,-0.60
2022-12-11T09:19:53.431Z,-0.90
2022-12-11T09:24:55.869Z,-0.70
2022-12-11T09:29:58.282Z,-0.60
2022-12-11T09:35:00.674Z,-0.70
2022-12-11T09:40:07.564Z,-0.70
2022-12-11T09:45:15.119Z,-0.80
2022-12-11T09:50:31.784Z,-0.70
2022-12-11T09:56:00.375Z,-0.80
2022-12-11T10:01:11.733Z,-0.80
2022-12-11T10:06:28.348Z,-0.90
2022-12-11T10:11:56.409Z,-1.00
2022-12-11T10:17:05.621Z,-1.10
2022-12-11T10:22:18.564Z,-1.00
2022-12-11T10:27:24.651Z,-0.90
2022-12-11T10:32:41.165Z,-0.90
2022-12-11T10:37:43.557Z,-0.90
2022-12-11T10:42:54.510Z,-0.80
2022-12-11T10:48:10.663Z,-0.80
2022-12-11T10:53:24.108Z,-0.90
2022-12-11T10:58:34.349Z,-0.70
2022-12-11T11:04:03.184Z,-0.50
2022-12-11T11:09:34.339Z,-0.60
2022-12-11T11:14:36.810Z,-0.50
2022-12-11T11:19:39.287Z,-0.30
2022-12-11T11:24:53.657Z,-0.30
2022-12-11T11:30:10.819Z,-0.20
2022-12-11T11:35:13.521Z,-0.30
2022-12-11T11:40:44.693Z,-0.50
2022-12-11T11:45:53.968Z,-0.30
2022-12-11T11:50:58.083Z,-0.30
2022-12-11T11:56:21.943Z,-0.30
2022-12-11T12:01:24.968Z,-0.10
2022-12-11T12:06:51.079Z,-0.10
2022-12-11T12:12:00.415Z,0.00
2022-12-11T12:17:22.403Z,0.10
2022-12-11T12:22:52.773Z,0.10
2022-12-11T12:28:33.899Z,0.10
2022-12-11T12:34:00.944Z,-0.10
2022-12-11T12:39:33.033Z,0.00
2022-12-11T12:44:45.758Z,0.00
2022-12-11T12:49:54.393Z,0.00
2022-12-11T12:55:14.904Z,-0.10
2022-12-11T13:00:41.926Z,0.00
2022-12-11T13:06:05.011Z,-0.10
2022-12-11T13:11:11.214Z,0.00
2022-12-11T13:16:16.716Z,-0.10
2022-12-11T13:21:34.642Z,-0.10
2022-12-11T13:26:37.016Z,-0.20
2022-12-11T13:31:43.782Z,-0.10
2022-12-11T13:36:51.781Z,-0.10
2022-12-11T13:41:59.882Z,-0.10
2022-12-11T13:47:04.280Z,-0.30
2022-12-11T13:52:07.329Z,-0.30
2022-12-11T13:57:09.759Z,-0.50
2022-12-11T14:02:35.638Z,-0.40
2022-12-11T14:07:53.147Z,-0.40
2022-12-11T14:13:33.264Z,-0.30
2022-12-11T14:18:37.248Z,-0.30
2022-12-11T14:23:39.735Z,-0.20
2022-12-11T14:28:43.042Z,-0.20
2022-12-11T14:34:00.938Z,-0.30
2022-12-11T14:39:12.790Z,-0.20
2022-12-11T14:44:18.765Z,-0.20
2022-12-11T14:49:41.915Z,-0.30
2022-12-11T14:54:51.313Z,-0.30
2022-12-11T14:59:54.914Z,-0.30
2022-12-11T15:05:10.762Z,-0.30
2022-12-11T15:10:33.416Z,-0.40
2022-12-11T15:15:46.625Z,-0.30
2022-12-11T15:20:58.931Z,-0.30
2022-12-11T15:26:02.258Z,-0.30
2022-12-11T15:31:21.109Z,-0.30
2022-12-11T15:36:34.766Z,-0.30
2022-12-11T15:41:37.170Z,-0.30
2022-12-11T15:46:39.587Z,-0.30
2022-12-11T15:51:43.384Z,-0.30
2022-12-11T15:56:45.989Z,-0.30
2022-12-11T16:01:54.531Z,-0.30
2022-12-11T16:06:57.435Z,-0.20
2022-12-11T16:11:59.948Z,-0.30
2022-12-11T16:17:02.763Z,-0.20
2022-12-11T16:22:05.990Z,-0.20
2022-12-11T16:27:12.113Z,-0.30
2022-12-11T16:32:14.507Z,-0.40
2022-12-11T16:37:16.853Z,-0.40
2022-12-11T16:42:19.359Z,-0.50
2022-12-11T16:47:22.571Z,-0.60
2022-12-11T16:52:26.084Z,-0.70
2022-12-11T16:57:28.459Z,-0.80
2022-12-11T17:02:31.013Z,-0.80
2022-12-11T17:07:34.616Z,-0.80
2022-12-11T17:12:37.028Z,-0.90
2022-12-11T17:17:39.539Z,-0.90
2022-12-11T17:22:42.364Z,-0.90
2022-12-11T17:27:45.016Z,-0.90
2022-12-11T17:32:48.744Z,-1.00
2022-12-11T17:37:51.725Z,-1.10
2022-12-11T17:42:54.853Z,-1.10
2022-12-11T17:47:57.243Z,-1.10
2022-12-11T17:52:59.650Z,-1.10
2022-12-11T17:58:03.081Z,-1.10
2022-12-11T18:03:05.860Z,-1.10
2022-12-11T18:08:08.367Z,-1.20
2022-12-11T18:13:11.251Z,-1.00
2022-12-11T18:18:13.772Z,-1.20
2022-12-11T18:23:16.182Z,-1.20
2022-12-11T18:28:18.773Z,-1.20
2022-12-11T18:33:21.212Z,-1.30
2022-12-11T18:38:23.996Z,-1.30
2022-12-11T18:43:26.348Z,-1.20
2022-12-11T18:48:28.829Z,-1.20
2022-12-11T18:53:31.187Z,-1.20
2022-12-11T18:58:34.123Z,-1.20
2022-12-11T19:03:37.170Z,-1.30
2022-12-11T19:08:40.735Z,-1.30
2022-12-11T19:13:43.919Z,-1.30
2022-12-11T19:18:46.343Z,-1.40
2022-12-11T19:23:48.803Z,-1.40
2022-12-11T19:28:52.843Z,-1.40
2022-12-11T19:33:55.636Z,-1.40
2022-12-11T19:39:01.968Z,-1.30
2022-12-11T19:44:05.455Z,-1.20
2022-12-11T19:49:07.890Z,-1.10
2022-12-11T19:54:14.660Z,-1.00
2022-12-11T19:59:17.780Z,-1.00
2022-12-11T20:04:20.249Z,-0.90
2022-12-11T20:09:24.290Z,-0.80
2022-12-11T20:14:27.279Z,-0.80
2022-12-11T20:19:29.838Z,-0.80
2022-12-11T20:24:32.342Z,-0.70
2022-12-11T20:29:34.777Z,-0.70
2022-12-11T20:34:37.391Z,-0.70
2022-12-11T20:39:39.777Z,-0.70
2022-12-11T20:44:47.288Z,-0.80
2022-12-11T20:49:52.231Z,-0.80
2022-12-11T20:54:54.619Z,-0.80
2022-12-11T20:59:57.006Z,-0.90
2022-12-11T21:04:59.495Z,-0.90
2022-12-11T21:10:01.991Z,-1.00
2022-12-11T21:15:05.480Z,-1.00
2022-12-11T21:20:08.529Z,-1.00
2022-12-11T21:25:11.577Z,-1.00
2022-12-11T21:30:14.487Z,-1.00
2022-12-11T21:35:17.289Z,-1.00
2022-12-11T21:40:19.783Z,-0.90
2022-12-11T21:50:44.813Z,-1.00
2022-12-11T21:55:47.224Z,-1.00
2022-12-11T22:00:49.732Z,-1.00
2022-12-11T22:05:52.151Z,-1.00
2022-12-11T22:10:54.675Z,-0.90
2022-12-11T22:15:57.522Z,-0.90
2022-12-11T22:21:00.902Z,-1.00
2022-12-11T22:26:03.574Z,-1.00
2022-12-11T22:31:13.252Z,-1.00
2022-12-11T22:36:17.812Z,-1.00
2022-12-11T22:41:29.321Z,0.30
2022-12-11T22:46:31.812Z,-1.00
2022-12-11T22:51:34.408Z,-1.00
2022-12-11T22:56:36.814Z,-1.00
2022-12-11T23:01:39.418Z,-1.00
2022-12-11T23:06:42.341Z,-1.00
2022-12-11T23:11:44.929Z,-1.00
2022-12-11T23:16:47.756Z,-1.10
2022-12-11T23:21:50.320Z,-1.20
2022-12-11T23:26:52.700Z,-1.30
2022-12-11T23:31:55.168Z,-1.40
2022-12-11T23:36:57.610Z,-1.50
2022-12-11T23:42:00.030Z,-1.50
2022-12-11T23:47:02.449Z,-1.60
2022-12-11T23:52:05.203Z,-1.60
2022-12-11T23:57:07.666Z,-1.50
